Time;durP1;ratioP1;P1;durP2;ratioP2;P2;SDS_P1;SDS_P2;PMS_P1;PMS_P2;Temp;Humidity;BMP_temperature;BMP_pressure;BME280_temperature;BME280_humidity;BME280_pressure;Samples;Min_cycle;Max_cycle;Signal;HPM_P1;HPM_P2
2022/09/09 00:00:09;;;;;;;;;;;;;;;;;;4992229;28;19956;-82
2022/09/09 00:02:35;;;;;;;;;;;;;;;;;;4999855;28;19914;-83
2022/09/09 00:05:01;;;;;;;;;;;;;;;;;;5011320;28;20000;-81
2022/09/09 00:07:26;;;;;;;;;;;;;;;;;;5008913;28;19915;-83
2022/09/09 00:09:52;;;;;;;;;;;;;;;;;;4994623;28;19922;-81
2022/09/09 00:12:21;;;;;;;;;;;;;;;;;;4994349;28;19914;-82
2022/09/09 00:14:47;;;;;;;;;;;;;;;;;;5011375;28;19956;-82
2022/09/09 00:17:13;;;;;;;;;;;;;;;;;;4994106;28;20369;-81
2022/09/09 00:19:40;;;;;;;;;;;;;;;;;;5011386;28;19921;-82
2022/09/09 00:22:06;;;;;;;;;;;;;;;;;;4978761;28;19914;-81
2022/09/09 00:24:31;;;;;;;;;;;;;;;;;;4995498;28;19910;-81
2022/09/09 00:27:00;;;;;;;;;;;;;;;;;;5013115;28;19921;-80
2022/09/09 00:29:26;;;;;;;;;;;;;;;;;;4996256;28;19902;-83
2022/09/09 00:31:52;;;;;;;;;;;;;;;;;;4999267;28;19914;-84
2022/09/09 00:34:18;;;;;;;;;;;;;;;;;;4998741;28;20001;-82
2022/09/09 00:36:45;;;;;;;;;;;;;;;;;;4999532;28;19914;-83
2022/09/09 00:39:11;;;;;;;;;;;;;;;;;;5016974;28;19894;-83
2022/09/09 00:41:37;;;;;;;;;;;;;;;;;;4985512;28;19946;-84
2022/09/09 00:44:05;;;;;;;;;;;;;;;;;;4985694;28;19925;-82
2022/09/09 00:46:32;;;;;;;;;;;;;;;;;;5001757;28;19903;-82
2022/09/09 00:48:58;;;;;;;;;;;;;;;;;;4985786;28;19950;-83
2022/09/09 00:51:24;;;;;;;;;;;;;;;;;;4985642;28;19925;-83
2022/09/09 00:53:58;;;;;;;;;;;;;;;;;;4985012;28;19906;-83
2022/09/09 00:56:25;;;;;;;;;;;;;;;;;;4985394;28;19909;-83
2022/09/09 00:58:52;;;;;;;;;;;;;;;;;;5003730;28;19898;-82
2022/09/09 01:01:18;;;;;;;;;;;;;;;;;;5019345;28;19920;-83
2022/09/09 01:03:45;;;;;;;;;;;;;;;;;;4997756;28;19976;-86
2022/09/09 01:06:11;;;;;;;;;;;;;;;;;;5018347;28;19898;-82
2022/09/09 01:08:38;;;;;;;;;;;;;;;;;;5020179;28;19898;-84
2022/09/09 01:11:04;;;;;;;;;;;;;;;;;;5018774;28;19918;-86
2022/09/09 01:13:33;;;;;;;;;;;;;;;;;;5004294;28;19918;-86
2022/09/09 01:16:05;;;;;;;;;;;;;;;;;;5005481;28;19926;-85
2022/09/09 01:18:42;;;;;;;;;;;;;;;;;;5005734;28;19909;-87
2022/09/09 01:21:10;;;;;;;;;;;;;;;;;;5004511;28;19965;-86
2022/09/09 01:23:38;;;;;;;;;;;;;;;;;;5004316;28;19909;-83
2022/09/09 01:26:15;;;;;;;;;;;;;;;;;;5004030;28;19902;-84
2022/09/09 01:28:44;;;;;;;;;;;;;;;;;;5004593;28;19909;-83
2022/09/09 01:31:17;;;;;;;;;;;;;;;;;;5003872;28;19921;-83
2022/09/09 01:33:49;;;;;;;;;;;;;;;;;;4989020;28;19918;-84
2022/09/09 01:36:17;;;;;;;;;;;;;;;;;;4983621;28;19913;-83
2022/09/09 01:38:51;;;;;;;;;;;;;;;;;;4997210;28;19918;-82
2022/09/09 01:41:20;;;;;;;;;;;;;;;;;;4997012;28;19918;-84
2022/09/09 01:44:07;;;;;;;;;;;;;;;;;;5001326;28;19946;-82
2022/09/09 01:46:37;;;;;;;;;;;;;;;;;;5000503;28;19918;-83
2022/09/09 01:49:05;;;;;;;;;;;;;;;;;;4994456;28;19938;-84
2022/09/09 01:51:31;;;;;;;;;;;;;;;;;;4982376;28;19902;-82
2022/09/09 01:54:01;;;;;;;;;;;;;;;;;;4999412;28;20203;-82
2022/09/09 01:56:29;;;;;;;;;;;;;;;;;;4983796;28;19918;-83
2022/09/09 01:58:55;;;;;;;;;;;;;;;;;;4981446;28;19920;-80
2022/09/09 02:01:21;;;;;;;;;;;;;;;;;;4983337;28;19918;-81
2022/09/09 02:03:48;;;;;;;;;;;;;;;;;;4999048;28;20061;-81
2022/09/09 02:06:18;;;;;;;;;;;;;;;;;;4983852;28;19918;-80
2022/09/09 02:08:44;;;;;;;;;;;;;;;;;;4999874;28;19918;-84
2022/09/09 02:11:11;;;;;;;;;;;;;;;;;;4983785;28;19906;-82
2022/09/09 02:13:51;;;;;;;;;;;;;;;;;;4984450;28;19922;-84
2022/09/09 02:16:21;;;;;;;;;;;;;;;;;;5015837;28;19926;-81
2022/09/09 02:18:47;;;;;;;;;;;;;;;;;;4979841;28;19921;-83
2022/09/09 02:21:13;;;;;;;;;;;;;;;;;;4979658;28;19898;-81
2022/09/09 02:23:39;;;;;;;;;;;;;;;;;;4991387;28;19921;-81
2022/09/09 02:26:08;;;;;;;;;;;;;;;;;;5005667;28;19918;-81
2022/09/09 02:28:36;;;;;;;;;;;;;;;;;;5006813;28;19917;-80
2022/09/09 02:31:02;;;;;;;;;;;;;;;;;;5012012;28;19910;-81
2022/09/09 02:33:34;;;;;;;;;;;;;;;;;;5010436;28;19914;-82
2022/09/09 02:36:03;;;;;;;;;;;;;;;;;;4994845;28;19914;-82
2022/09/09 02:38:34;;;;;;;;;;;;;;;;;;5009565;28;19940;-82
2022/09/09 02:41:11;;;;;;;;;;;;;;;;;;5007522;28;19913;-82
2022/09/09 02:43:40;;;;;;;;;;;;;;;;;;4988012;28;19914;-81
2022/09/09 02:46:10;;;;;;;;;;;;;;;;;;5021265;28;20480;-81
2022/09/09 02:48:36;;;;;;;;;;;;;;;;;;5003905;28;19922;-81
2022/09/09 02:51:06;;;;;;;;;;;;;;;;;;4987977;28;19914;-82
2022/09/09 02:53:34;;;;;;;;;;;;;;;;;;4986566;28;20339;-82
2022/09/09 02:56:01;;;;;;;;;;;;;;;;;;4987570;28;19914;-81
2022/09/09 02:58:33;;;;;;;;;;;;;;;;;;4987998;28;19914;-81
2022/09/09 03:01:06;;;;;;;;;;;;;;;;;;4988809;28;20423;-82
2022/09/09 03:03:32;;;;;;;;;;;;;;;;;;5005002;28;19914;-81
2022/09/09 03:06:05;;;;;;;;;;;;;;;;;;4988520;28;19914;-82
2022/09/09 03:08:32;;;;;;;;;;;;;;;;;;4990551;28;19918;-81
2022/09/09 03:11:00;;;;;;;;;;;;;;;;;;5004703;28;19918;-79
2022/09/09 03:13:28;;;;;;;;;;;;;;;;;;4999954;28;19918;-81
2022/09/09 03:15:54;;;;;;;;;;;;;;;;;;5002827;28;19941;-80
2022/09/09 03:18:20;;;;;;;;;;;;;;;;;;5023202;28;19913;-80
2022/09/09 03:20:54;;;;;;;;;;;;;;;;;;4993136;28;20001;-80
2022/09/09 03:23:23;;;;;;;;;;;;;;;;;;5007595;28;19914;-81
2022/09/09 03:25:49;;;;;;;;;;;;;;;;;;4992055;28;19918;-80
2022/09/09 03:28:23;;;;;;;;;;;;;;;;;;5007843;28;19924;-80
2022/09/09 03:30:52;;;;;;;;;;;;;;;;;;4989992;28;20340;-80
2022/09/09 03:33:19;;;;;;;;;;;;;;;;;;5005175;28;19924;-81
2022/09/09 03:35:48;;;;;;;;;;;;;;;;;;4991090;28;19914;-79
2022/09/09 03:38:18;;;;;;;;;;;;;;;;;;4992577;28;19925;-80
2022/09/09 03:40:45;;;;;;;;;;;;;;;;;;5007754;28;19914;-81
2022/09/09 03:43:13;;;;;;;;;;;;;;;;;;5012127;28;19991;-80
2022/09/09 03:45:39;;;;;;;;;;;;;;;;;;5013083;28;19914;-81
2022/09/09 03:48:11;;;;;;;;;;;;;;;;;;4999253;28;19918;-80
2022/09/09 03:50:48;;;;;;;;;;;;;;;;;;5015473;28;20009;-81
2022/09/09 03:53:19;;;;;;;;;;;;;;;;;;5000629;28;19965;-81
2022/09/09 03:56:05;;;;;;;;;;;;;;;;;;5003313;28;19909;-80
2022/09/09 03:58:32;;;;;;;;;;;;;;;;;;5017816;28;19949;-81
2022/09/09 04:01:13;;;;;;;;;;;;;;;;;;5018689;28;19898;-82
2022/09/09 04:03:43;;;;;;;;;;;;;;;;;;5000756;28;19902;-81
2022/09/09 04:06:12;;;;;;;;;;;;;;;;;;4998563;28;19914;-83
2022/09/09 04:08:48;;;;;;;;;;;;;;;;;;4999722;28;19934;-82
2022/09/09 04:11:18;;;;;;;;;;;;;;;;;;4997574;28;19936;-82
2022/09/09 04:13:54;;;;;;;;;;;;;;;;;;4996346;28;19918;-81
2022/09/09 04:16:31;;;;;;;;;;;;;;;;;;4997063;28;19985;-81
2022/09/09 04:19:01;;;;;;;;;;;;;;;;;;4998070;28;19937;-81
2022/09/09 04:21:46;;;;;;;;;;;;;;;;;;5016261;28;19914;-82
2022/09/09 04:24:16;;;;;;;;;;;;;;;;;;5000569;28;19904;-82
2022/09/09 04:26:45;;;;;;;;;;;;;;;;;;5000664;28;19921;-81
2022/09/09 04:29:21;;;;;;;;;;;;;;;;;;5031752;28;19902;-81
2022/09/09 04:32:10;;;;;;;;;;;;;;;;;;5001974;28;19941;-84
2022/09/09 04:34:48;;;;;;;;;;;;;;;;;;5017314;28;19921;-82
2022/09/09 04:37:20;;;;;;;;;;;;;;;;;;5016303;28;19906;-81
2022/09/09 04:39:53;;;;;;;;;;;;;;;;;;5017438;28;19921;-82
2022/09/09 04:42:29;;;;;;;;;;;;;;;;;;5017556;28;19937;-83
2022/09/09 04:44:58;;;;;;;;;;;;;;;;;;5017655;28;19960;-82
2022/09/09 04:47:33;;;;;;;;;;;;;;;;;;5020602;28;19969;-82
2022/09/09 04:50:02;;;;;;;;;;;;;;;;;;5005194;28;19910;-81
2022/09/09 04:52:28;;;;;;;;;;;;;;;;;;5020947;28;19929;-83
2022/09/09 04:54:55;;;;;;;;;;;;;;;;;;5020665;28;19902;-81
2022/09/09 04:57:21;;;;;;;;;;;;;;;;;;5020808;28;19921;-83
2022/09/09 04:59:51;;;;;;;;;;;;;;;;;;5020332;28;19921;-83
2022/09/09 05:02:18;;;;;;;;;;;;;;;;;;5002911;28;19921;-81
2022/09/09 05:04:49;;;;;;;;;;;;;;;;;;5019922;28;19901;-83
2022/09/09 05:07:41;;;;;;;;;;;;;;;;;;5019777;28;19900;-82
2022/09/09 05:10:10;;;;;;;;;;;;;;;;;;5003701;28;19922;-82
2022/09/09 05:12:50;;;;;;;;;;;;;;;;;;5020107;28;19975;-82
2022/09/09 05:18:58;;;;;;;;;;;;;;;;;;5022358;28;19924;-82
2022/09/09 05:21:29;;;;;;;;;;;;;;;;;;5022464;28;19913;-83
2022/09/09 05:24:02;;;;;;;;;;;;;;;;;;5007456;28;19904;-82
2022/09/09 05:26:35;;;;;;;;;;;;;;;;;;4986918;28;19969;-84
2022/09/09 05:29:08;;;;;;;;;;;;;;;;;;4968716;28;19988;-83
2022/09/09 05:31:34;;;;;;;;;;;;;;;;;;5000176;28;19921;-82
2022/09/09 05:34:04;;;;;;;;;;;;;;;;;;5001789;28;19913;-86
2022/09/09 05:36:35;;;;;;;;;;;;;;;;;;4986520;28;19925;-82
2022/09/09 05:39:01;;;;;;;;;;;;;;;;;;4969229;28;19917;-84
2022/09/09 05:41:32;;;;;;;;;;;;;;;;;;4987389;28;19938;-84
2022/09/09 05:44:07;;;;;;;;;;;;;;;;;;4981916;28;19918;-82
2022/09/09 05:46:39;;;;;;;;;;;;;;;;;;5002952;28;19918;-83
2022/09/09 05:49:06;;;;;;;;;;;;;;;;;;4984538;28;19910;-83
2022/09/09 05:51:37;;;;;;;;;;;;;;;;;;4986628;28;19917;-81
2022/09/09 05:54:15;;;;;;;;;;;;;;;;;;4983417;28;19906;-82
2022/09/09 05:56:44;;;;;;;;;;;;;;;;;;5032465;23;19925;-77
2022/09/09 05:59:11;;;;;;;;;;;;;;;;;;5010959;28;19968;-76
2022/09/09 06:01:41;;;;;;;;;;;;;;;;;;4996003;28;20077;-77
2022/09/09 06:04:10;;;;;;;;;;;;;;;;;;5012154;28;20396;-77
2022/09/09 06:06:36;;;;;;;;;;;;;;;;;;5011860;28;19949;-77
2022/09/09 06:09:02;;;;;;;;;;;;;;;;;;4995760;28;19920;-77
2022/09/09 06:11:35;;;;;;;;;;;;;;;;;;4995707;28;20364;-78
2022/09/09 06:14:03;;;;;;;;;;;;;;;;;;5011492;28;22346;-77
2022/09/09 06:16:32;;;;;;;;;;;;;;;;;;4980592;28;19940;-76
2022/09/09 06:18:57;;;;;;;;;;;;;;;;;;4992376;28;19914;-77
2022/09/09 06:21:24;;;;;;;;;;;;;;;;;;4975524;28;19914;-76
2022/09/09 06:23:51;;;;;;;;;;;;;;;;;;4975565;28;19918;-77
2022/09/09 06:26:19;;;;;;;;;;;;;;;;;;4975730;28;19913;-77
2022/09/09 06:28:47;;;;;;;;;;;;;;;;;;4991591;28;19965;-76
2022/09/09 06:31:13;;;;;;;;;;;;;;;;;;4992221;28;20455;-77
2022/09/09 06:33:40;;;;;;;;;;;;;;;;;;4995682;28;20464;-77
2022/09/09 06:36:06;;;;;;;;;;;;;;;;;;4979700;28;19914;-77
2022/09/09 06:38:32;;;;;;;;;;;;;;;;;;5011482;28;19920;-78
2022/09/09 06:40:57;;;;;;;;;;;;;;;;;;5012889;28;19941;-79
2022/09/09 06:43:23;;;;;;;;;;;;;;;;;;4995046;28;19913;-77
2022/09/09 06:45:49;;;;;;;;;;;;;;;;;;4995370;28;19913;-75
2022/09/09 06:48:15;;;;;;;;;;;;;;;;;;5010477;28;19917;-77
2022/09/09 06:50:41;;;;;;;;;;;;;;;;;;4993567;28;20000;-77
2022/09/09 06:53:06;;;;;;;;;;;;;;;;;;4991615;28;19985;-76
2022/09/09 06:55:32;;;;;;;;;;;;;;;;;;4975645;28;19997;-77
2022/09/09 06:57:58;;;;;;;;;;;;;;;;;;4991549;28;20335;-76
2022/09/09 07:00:24;;;;;;;;;;;;;;;;;;5007867;28;19945;-77
2022/09/09 07:02:50;;;;;;;;;;;;;;;;;;4991596;28;19964;-77
2022/09/09 07:05:16;;;;;;;;;;;;;;;;;;4975136;28;19914;-76
2022/09/09 07:07:43;;;;;;;;;;;;;;;;;;4990930;28;19925;-77
2022/09/09 07:10:10;;;;;;;;;;;;;;;;;;4974776;28;19920;-77
2022/09/09 07:12:37;;;;;;;;;;;;;;;;;;4991427;28;19921;-77
2022/09/09 07:15:02;;;;;;;;;;;;;;;;;;4991322;28;19937;-77
2022/09/09 07:17:28;;;;;;;;;;;;;;;;;;4991106;28;20384;-77
2022/09/09 07:19:54;;;;;;;;;;;;;;;;;;4991299;28;19914;-77
2022/09/09 07:22:20;;;;;;;;;;;;;;;;;;4973438;28;19970;-77
2022/09/09 07:24:45;;;;;;;;;;;;;;;;;;4987854;28;19914;-77
2022/09/09 07:27:12;;;;;;;;;;;;;;;;;;4971855;28;19921;-77
2022/09/09 07:29:37;;;;;;;;;;;;;;;;;;4955435;28;19918;-77
2022/09/09 07:32:04;;;;;;;;;;;;;;;;;;4955924;28;20214;-76
2022/09/09 07:34:32;;;;;;;;;;;;;;;;;;4987754;28;19961;-76
2022/09/09 07:36:58;;;;;;;;;;;;;;;;;;4982356;28;19914;-77
2022/09/09 07:39:23;;;;;;;;;;;;;;;;;;5010742;28;19917;-77
2022/09/09 07:41:54;;;;;;;;;;;;;;;;;;5010761;28;19913;-76
2022/09/09 07:44:27;;;;;;;;;;;;;;;;;;5010671;28;20008;-75
2022/09/09 07:47:19;;;;;;;;;;;;;;;;;;4997979;28;19960;-76
2022/09/09 07:49:47;;;;;;;;;;;;;;;;;;5010482;28;19976;-77
2022/09/09 07:52:14;;;;;;;;;;;;;;;;;;5010701;28;19920;-75
2022/09/09 07:54:42;;;;;;;;;;;;;;;;;;4981530;28;19914;-77
2022/09/09 07:57:09;;;;;;;;;;;;;;;;;;4955690;28;19918;-76
2022/09/09 07:59:36;;;;;;;;;;;;;;;;;;4971471;28;19945;-76
2022/09/09 08:02:02;;;;;;;;;;;;;;;;;;4955553;28;19965;-76
2022/09/09 08:04:30;;;;;;;;;;;;;;;;;;4971704;28;19917;-76
2022/09/09 08:06:56;;;;;;;;;;;;;;;;;;4987820;28;19914;-77
2022/09/09 08:09:25;;;;;;;;;;;;;;;;;;4971537;28;20102;-76
2022/09/09 08:11:51;;;;;;;;;;;;;;;;;;4981383;28;19945;-77
2022/09/09 08:14:16;;;;;;;;;;;;;;;;;;5010501;28;19956;-77
2022/09/09 08:16:42;;;;;;;;;;;;;;;;;;5010534;28;20391;-77
2022/09/09 08:19:07;;;;;;;;;;;;;;;;;;5011622;28;19920;-77
2022/09/09 08:21:33;;;;;;;;;;;;;;;;;;5014040;28;19917;-76
2022/09/09 08:24:02;;;;;;;;;;;;;;;;;;4998066;28;19913;-77
2022/09/09 08:26:27;;;;;;;;;;;;;;;;;;4998033;28;19921;-76
2022/09/09 08:28:53;;;;;;;;;;;;;;;;;;5009938;28;20277;-77
2022/09/09 08:31:18;;;;;;;;;;;;;;;;;;4994637;28;19964;-77
2022/09/09 08:33:45;;;;;;;;;;;;;;;;;;4994029;28;19921;-77
2022/09/09 08:36:11;;;;;;;;;;;;;;;;;;4994466;28;19943;-78
2022/09/09 08:38:37;;;;;;;;;;;;;;;;;;4994394;28;20334;-77
2022/09/09 08:41:02;;;;;;;;;;;;;;;;;;4993071;28;20304;-77
2022/09/09 08:43:28;;;;;;;;;;;;;;;;;;4994201;28;19914;-77
2022/09/09 08:45:54;;;;;;;;;;;;;;;;;;4995218;28;19973;-78
2022/09/09 08:48:20;;;;;;;;;;;;;;;;;;4998506;28;19918;-77
2022/09/09 08:50:47;;;;;;;;;;;;;;;;;;5010502;28;20300;-77
2022/09/09 08:53:19;;;;;;;;;;;;;;;;;;5026800;28;20000;-76
2022/09/09 08:55:44;;;;;;;;;;;;;;;;;;4977733;28;19914;-78
2022/09/09 08:58:10;;;;;;;;;;;;;;;;;;5001610;28;19914;-75
2022/09/09 09:00:35;;;;;;;;;;;;;;;;;;5008271;28;19921;-78
2022/09/09 09:03:01;;;;;;;;;;;;;;;;;;4996469;28;20426;-76
2022/09/09 09:05:27;;;;;;;;;;;;;;;;;;5013766;28;19967;-76
2022/09/09 09:07:52;;;;;;;;;;;;;;;;;;5012953;28;19918;-78
2022/09/09 09:10:22;;;;;;;;;;;;;;;;;;4997940;28;19921;-77
2022/09/09 09:12:48;;;;;;;;;;;;;;;;;;5014062;28;20009;-82
2022/09/09 09:15:16;;;;;;;;;;;;;;;;;;5014318;28;19983;-77
2022/09/09 09:17:43;;;;;;;;;;;;;;;;;;5013804;28;19909;-78
2022/09/09 09:20:09;;;;;;;;;;;;;;;;;;5014103;28;19913;-77
2022/09/09 09:22:36;;;;;;;;;;;;;;;;;;5012940;28;19909;-79
2022/09/09 09:25:04;;;;;;;;;;;;;;;;;;5014266;28;19968;-79
2022/09/09 09:27:30;;;;;;;;;;;;;;;;;;5014611;28;19913;-78
2022/09/09 09:29:56;;;;;;;;;;;;;;;;;;5012639;28;19968;-77
2022/09/09 09:32:22;;;;;;;;;;;;;;;;;;4991328;28;19922;-78
2022/09/09 09:34:48;;;;;;;;;;;;;;;;;;4993461;28;19981;-78
2022/09/09 09:37:14;;;;;;;;;;;;;;;;;;4992996;28;19914;-79
2022/09/09 09:39:39;;;;;;;;;;;;;;;;;;4992059;28;19921;-78
2022/09/09 09:42:06;;;;;;;;;;;;;;;;;;4993190;28;19921;-77
2022/09/09 09:44:31;;;;;;;;;;;;;;;;;;4992931;28;19914;-78
2022/09/09 09:47:04;;;;;;;;;;;;;;;;;;4992969;28;19953;-78
2022/09/09 09:49:29;;;;;;;;;;;;;;;;;;4989214;28;20455;-77
2022/09/09 09:51:55;;;;;;;;;;;;;;;;;;4992672;28;20312;-78
2022/09/09 09:54:20;;;;;;;;;;;;;;;;;;5005501;28;20320;-79
2022/09/09 09:56:51;;;;;;;;;;;;;;;;;;4985072;28;19928;-78
2022/09/09 09:59:17;;;;;;;;;;;;;;;;;;5010411;28;19917;-79
2022/09/09 10:01:42;;;;;;;;;;;;;;;;;;4992763;28;20336;-77
2022/09/09 10:04:10;;;;;;;;;;;;;;;;;;5009114;28;19932;-79
2022/09/09 10:06:37;;;;;;;;;;;;;;;;;;4976861;28;19913;-79
2022/09/09 10:09:02;;;;;;;;;;;;;;;;;;4997568;28;19918;-79
2022/09/09 10:11:28;;;;;;;;;;;;;;;;;;4993475;28;20338;-79
2022/09/09 10:13:54;;;;;;;;;;;;;;;;;;5008692;28;19921;-79
2022/09/09 10:16:20;;;;;;;;;;;;;;;;;;4992434;28;20369;-80
2022/09/09 10:18:46;;;;;;;;;;;;;;;;;;4994281;28;20001;-79
2022/09/09 10:21:11;;;;;;;;;;;;;;;;;;4993512;28;19953;-79
2022/09/09 10:23:37;;;;;;;;;;;;;;;;;;5008341;28;20440;-78
2022/09/09 10:26:02;;;;;;;;;;;;;;;;;;4976044;28;19971;-79
2022/09/09 10:28:28;;;;;;;;;;;;;;;;;;5008546;28;19918;-84
2022/09/09 10:30:53;;;;;;;;;;;;;;;;;;4992620;28;19918;-78
2022/09/09 10:33:20;;;;;;;;;;;;;;;;;;4992942;28;20384;-77
2022/09/09 10:35:49;;;;;;;;;;;;;;;;;;5027523;28;19920;-78
2022/09/09 10:38:14;;;;;;;;;;;;;;;;;;5012391;28;19914;-78
2022/09/09 10:40:42;;;;;;;;;;;;;;;;;;5011319;28;19964;-78
2022/09/09 10:43:08;;;;;;;;;;;;;;;;;;5012383;28;19914;-80
2022/09/09 10:45:34;;;;;;;;;;;;;;;;;;4998371;28;19914;-78
2022/09/09 10:47:59;;;;;;;;;;;;;;;;;;4991554;28;19914;-79
2022/09/09 10:50:25;;;;;;;;;;;;;;;;;;4991970;28;19993;-80
2022/09/09 10:52:50;;;;;;;;;;;;;;;;;;4993284;28;20407;-79
2022/09/09 10:55:16;;;;;;;;;;;;;;;;;;4992374;28;19914;-79
2022/09/09 10:57:41;;;;;;;;;;;;;;;;;;4993219;28;19914;-78
2022/09/09 11:00:07;;;;;;;;;;;;;;;;;;4992053;28;19917;-76
2022/09/09 11:02:33;;;;;;;;;;;;;;;;;;4993375;28;19910;-78
2022/09/09 11:04:58;;;;;;;;;;;;;;;;;;4992865;28;19948;-80
2022/09/09 11:07:23;;;;;;;;;;;;;;;;;;5007867;28;19968;-78
2022/09/09 11:09:49;;;;;;;;;;;;;;;;;;4992757;28;19925;-77
2022/09/09 11:12:14;;;;;;;;;;;;;;;;;;4992590;28;19921;-78
2022/09/09 11:14:40;;;;;;;;;;;;;;;;;;4992952;28;19917;-79
2022/09/09 11:17:05;;;;;;;;;;;;;;;;;;4991484;28;19913;-86
2022/09/09 11:19:31;;;;;;;;;;;;;;;;;;4991814;28;20020;-80
2022/09/09 11:21:57;;;;;;;;;;;;;;;;;;4992694;28;19997;-79
2022/09/09 11:24:23;;;;;;;;;;;;;;;;;;4991415;28;20349;-79
2022/09/09 11:26:49;;;;;;;;;;;;;;;;;;4993021;28;19985;-80
2022/09/09 11:29:14;;;;;;;;;;;;;;;;;;5023855;28;19918;-78
2022/09/09 11:31:41;;;;;;;;;;;;;;;;;;5024224;28;19940;-80
2022/09/09 11:34:08;;;;;;;;;;;;;;;;;;4991512;28;19993;-79
2022/09/09 11:36:34;;;;;;;;;;;;;;;;;;5015982;28;19922;-80
2022/09/09 11:38:59;;;;;;;;;;;;;;;;;;4992092;28;19960;-80
2022/09/09 11:41:25;;;;;;;;;;;;;;;;;;4991168;28;20266;-80
2022/09/09 11:43:53;;;;;;;;;;;;;;;;;;4991048;28;19918;-80
2022/09/09 11:46:19;;;;;;;;;;;;;;;;;;5007660;28;20160;-78
2022/09/09 11:48:45;;;;;;;;;;;;;;;;;;4992211;28;20357;-80
2022/09/09 11:51:12;;;;;;;;;;;;;;;;;;4992298;28;19936;-77
2022/09/09 11:53:37;;;;;;;;;;;;;;;;;;5008227;28;19916;-79
2022/09/09 11:56:03;;;;;;;;;;;;;;;;;;5006993;23;20332;-77
2022/09/09 11:58:32;;;;;;;;;;;;;;;;;;4978579;28;19918;-77
2022/09/09 12:00:57;;;;;;;;;;;;;;;;;;4995538;28;19918;-77
2022/09/09 12:03:22;;;;;;;;;;;;;;;;;;4995581;28;20418;-77
2022/09/09 12:05:48;;;;;;;;;;;;;;;;;;4997114;28;20397;-76
2022/09/09 12:08:13;;;;;;;;;;;;;;;;;;4996105;28;20448;-77
2022/09/09 12:10:38;;;;;;;;;;;;;;;;;;4978896;28;19921;-78
2022/09/09 12:13:04;;;;;;;;;;;;;;;;;;4996514;28;19910;-77
2022/09/09 12:15:29;;;;;;;;;;;;;;;;;;4995877;28;20384;-78
2022/09/09 12:17:55;;;;;;;;;;;;;;;;;;4991288;28;20300;-78
2022/09/09 12:20:20;;;;;;;;;;;;;;;;;;4984510;28;19920;-77
2022/09/09 12:22:45;;;;;;;;;;;;;;;;;;4968030;28;19936;-76
2022/09/09 12:25:11;;;;;;;;;;;;;;;;;;4994436;28;20308;-76
2022/09/09 12:27:37;;;;;;;;;;;;;;;;;;4995949;28;19925;-76
2022/09/09 12:30:02;;;;;;;;;;;;;;;;;;4977182;28;19918;-75
2022/09/09 12:32:28;;;;;;;;;;;;;;;;;;4975644;28;19925;-76
2022/09/09 12:34:54;;;;;;;;;;;;;;;;;;4975162;28;19914;-77
2022/09/09 12:37:20;;;;;;;;;;;;;;;;;;4976672;28;20363;-78
2022/09/09 12:39:46;;;;;;;;;;;;;;;;;;4975455;28;19918;-78
2022/09/09 12:42:11;;;;;;;;;;;;;;;;;;4976622;28;20397;-78
2022/09/09 12:44:36;;;;;;;;;;;;;;;;;;4975583;28;19918;-79
2022/09/09 12:47:02;;;;;;;;;;;;;;;;;;4975693;28;19955;-78
2022/09/09 12:49:27;;;;;;;;;;;;;;;;;;4976575;28;19929;-77
2022/09/09 12:51:53;;;;;;;;;;;;;;;;;;4975223;28;19915;-74
2022/09/09 12:54:18;;;;;;;;;;;;;;;;;;4976520;28;20676;-77
2022/09/09 12:56:44;;;;;;;;;;;;;;;;;;4975461;28;19918;-77
2022/09/09 12:59:09;;;;;;;;;;;;;;;;;;4976789;28;20329;-75
2022/09/09 13:01:34;;;;;;;;;;;;;;;;;;4975863;28;19914;-77
2022/09/09 13:04:00;;;;;;;;;;;;;;;;;;4979059;28;19962;-78
2022/09/09 13:06:25;;;;;;;;;;;;;;;;;;4979009;28;19940;-77
2022/09/09 13:08:51;;;;;;;;;;;;;;;;;;4972939;28;19917;-78
2022/09/09 13:11:16;;;;;;;;;;;;;;;;;;4995392;28;20345;-77
2022/09/09 13:13:41;;;;;;;;;;;;;;;;;;4997426;28;19977;-78
2022/09/09 13:16:08;;;;;;;;;;;;;;;;;;4999175;28;19914;-77
2022/09/09 13:18:33;;;;;;;;;;;;;;;;;;4997597;28;20384;-77
2022/09/09 13:20:58;;;;;;;;;;;;;;;;;;4995518;28;19966;-76
2022/09/09 13:23:24;;;;;;;;;;;;;;;;;;4978407;28;20377;-77
2022/09/09 13:25:49;;;;;;;;;;;;;;;;;;4994815;28;19941;-78
2022/09/09 13:28:14;;;;;;;;;;;;;;;;;;4994685;28;19924;-76
2022/09/09 13:30:42;;;;;;;;;;;;;;;;;;4994793;28;19949;-77
2022/09/09 13:33:08;;;;;;;;;;;;;;;;;;4993508;28;19918;-78
2022/09/09 13:35:34;;;;;;;;;;;;;;;;;;4994786;28;19921;-76
2022/09/09 13:38:00;;;;;;;;;;;;;;;;;;4994563;28;19921;-78
2022/09/09 13:40:25;;;;;;;;;;;;;;;;;;4994536;28;19914;-77
2022/09/09 13:42:50;;;;;;;;;;;;;;;;;;4995272;28;20373;-78
2022/09/09 13:45:16;;;;;;;;;;;;;;;;;;4977332;28;19992;-78
2022/09/09 13:47:41;;;;;;;;;;;;;;;;;;4994453;28;19964;-79
2022/09/09 13:50:07;;;;;;;;;;;;;;;;;;4994881;28;19925;-78
2022/09/09 13:52:32;;;;;;;;;;;;;;;;;;4993337;28;19960;-79
2022/09/09 13:54:59;;;;;;;;;;;;;;;;;;4994760;28;20376;-80
2022/09/09 13:57:25;;;;;;;;;;;;;;;;;;4994582;28;20403;-81
2022/09/09 13:59:50;;;;;;;;;;;;;;;;;;4994321;28;19910;-79
2022/09/09 14:02:16;;;;;;;;;;;;;;;;;;4974911;28;20302;-85
2022/09/09 14:04:42;;;;;;;;;;;;;;;;;;4958940;28;19915;-83
2022/09/09 14:07:07;;;;;;;;;;;;;;;;;;4982373;28;20381;-80
2022/09/09 14:09:32;;;;;;;;;;;;;;;;;;4955601;28;19974;-80
2022/09/09 14:12:04;;;;;;;;;;;;;;;;;;4970634;28;19918;-84
2022/09/09 14:14:38;;;;;;;;;;;;;;;;;;4954826;28;20017;-83
2022/09/09 14:17:03;;;;;;;;;;;;;;;;;;4980433;28;19960;-82
2022/09/09 14:19:29;;;;;;;;;;;;;;;;;;4962165;28;20017;-82
2022/09/09 14:21:54;;;;;;;;;;;;;;;;;;4973796;28;19921;-81
2022/09/09 14:24:19;;;;;;;;;;;;;;;;;;4974496;28;20425;-81
2022/09/09 14:26:45;;;;;;;;;;;;;;;;;;4973986;28;20412;-80
2022/09/09 14:29:10;;;;;;;;;;;;;;;;;;4973796;28;19918;-81
2022/09/09 14:31:35;;;;;;;;;;;;;;;;;;4973992;28;20377;-81
2022/09/09 14:34:01;;;;;;;;;;;;;;;;;;4957706;28;19921;-80
2022/09/09 14:36:26;;;;;;;;;;;;;;;;;;4973183;28;19921;-79
2022/09/09 14:38:52;;;;;;;;;;;;;;;;;;4974573;28;20004;-79
2022/09/09 14:41:17;;;;;;;;;;;;;;;;;;4973372;28;20312;-79
2022/09/09 14:43:43;;;;;;;;;;;;;;;;;;4973207;28;19914;-80
2022/09/09 14:46:08;;;;;;;;;;;;;;;;;;4972863;28;19914;-79
2022/09/09 14:48:34;;;;;;;;;;;;;;;;;;4972529;28;19918;-79
2022/09/09 14:51:01;;;;;;;;;;;;;;;;;;4973052;28;19941;-79
2022/09/09 14:53:26;;;;;;;;;;;;;;;;;;4956998;28;19922;-80
2022/09/09 14:55:52;;;;;;;;;;;;;;;;;;4971439;28;19914;-80
2022/09/09 14:58:17;;;;;;;;;;;;;;;;;;4988602;28;19965;-79
2022/09/09 15:00:43;;;;;;;;;;;;;;;;;;4988786;28;20341;-79
2022/09/09 15:03:10;;;;;;;;;;;;;;;;;;4973702;28;19914;-79
2022/09/09 15:05:36;;;;;;;;;;;;;;;;;;4974202;28;20374;-80
2022/09/09 15:08:01;;;;;;;;;;;;;;;;;;4971844;28;19957;-79
2022/09/09 15:10:26;;;;;;;;;;;;;;;;;;4972354;28;19914;-77
2022/09/09 15:12:52;;;;;;;;;;;;;;;;;;4972453;28;20337;-79
2022/09/09 15:15:17;;;;;;;;;;;;;;;;;;4988807;28;19925;-78
2022/09/09 15:17:42;;;;;;;;;;;;;;;;;;4972431;28;20401;-80
2022/09/09 15:20:08;;;;;;;;;;;;;;;;;;4973554;28;19922;-79
2022/09/09 15:22:33;;;;;;;;;;;;;;;;;;4973726;28;20294;-79
2022/09/09 15:24:59;;;;;;;;;;;;;;;;;;4973567;28;19948;-78
2022/09/09 15:27:24;;;;;;;;;;;;;;;;;;4973378;28;20016;-79
2022/09/09 15:29:51;;;;;;;;;;;;;;;;;;4972702;28;20045;-77
2022/09/09 15:32:16;;;;;;;;;;;;;;;;;;4973343;28;19914;-79
2022/09/09 15:34:42;;;;;;;;;;;;;;;;;;4973491;28;19914;-79
2022/09/09 15:37:07;;;;;;;;;;;;;;;;;;4988025;28;19945;-80
2022/09/09 15:39:33;;;;;;;;;;;;;;;;;;4988085;28;19913;-79
2022/09/09 15:42:00;;;;;;;;;;;;;;;;;;4973421;28;19914;-78
2022/09/09 15:44:26;;;;;;;;;;;;;;;;;;4988552;28;19918;-79
2022/09/09 15:46:53;;;;;;;;;;;;;;;;;;4973065;28;19957;-79
2022/09/09 15:49:18;;;;;;;;;;;;;;;;;;4971612;28;19924;-79
2022/09/09 15:51:44;;;;;;;;;;;;;;;;;;4974177;28;19996;-79
2022/09/09 15:54:09;;;;;;;;;;;;;;;;;;4973475;28;19948;-81
2022/09/09 15:56:34;;;;;;;;;;;;;;;;;;4973557;28;19918;-80
2022/09/09 15:59:01;;;;;;;;;;;;;;;;;;4972513;28;20281;-78
2022/09/09 16:01:30;;;;;;;;;;;;;;;;;;4972649;28;19914;-79
2022/09/09 16:03:55;;;;;;;;;;;;;;;;;;4988840;28;19965;-79
2022/09/09 16:06:21;;;;;;;;;;;;;;;;;;4983498;28;20335;-81
2022/09/09 16:08:46;;;;;;;;;;;;;;;;;;4973015;28;19973;-80
2022/09/09 16:11:13;;;;;;;;;;;;;;;;;;4987956;28;19914;-80
2022/09/09 16:13:39;;;;;;;;;;;;;;;;;;4973303;28;19926;-80
2022/09/09 16:16:04;;;;;;;;;;;;;;;;;;4973092;28;19915;-80
2022/09/09 16:18:30;;;;;;;;;;;;;;;;;;4976793;28;19964;-80
2022/09/09 16:20:55;;;;;;;;;;;;;;;;;;4973284;28;19916;-80
2022/09/09 16:23:20;;;;;;;;;;;;;;;;;;4974668;28;20332;-80
2022/09/09 16:25:46;;;;;;;;;;;;;;;;;;4980447;28;19921;-80
2022/09/09 16:28:11;;;;;;;;;;;;;;;;;;4996598;28;19996;-80
2022/09/09 16:30:37;;;;;;;;;;;;;;;;;;4975136;28;20289;-80
2022/09/09 16:33:02;;;;;;;;;;;;;;;;;;4982752;28;19914;-79
2022/09/09 16:35:27;;;;;;;;;;;;;;;;;;4975119;28;20332;-79
2022/09/09 16:37:57;;;;;;;;;;;;;;;;;;4990939;28;19921;-81
2022/09/09 16:40:22;;;;;;;;;;;;;;;;;;4993068;28;19933;-80
2022/09/09 16:42:48;;;;;;;;;;;;;;;;;;4994702;28;19960;-80
2022/09/09 16:45:14;;;;;;;;;;;;;;;;;;4995029;28;20207;-80
2022/09/09 16:47:39;;;;;;;;;;;;;;;;;;4995218;28;19975;-80
2022/09/09 16:50:04;;;;;;;;;;;;;;;;;;4996172;28;20377;-80